sensor_id;sensor_type;location;lat;lon;timestamp;temperature;humidity
42019;DHT22;27703;51.980;5.848;2022-08-01T00:02:09;20.90;99.90
42019;DHT22;27703;51.980;5.848;2022-08-01T00:04:35;20.90;99.90
42019;DHT22;27703;51.980;5.848;2022-08-01T00:07:00;20.90;99.90
42019;DHT22;27703;51.980;5.848;2022-08-01T00:09:26;20.90;99.90
42019;DHT22;27703;51.980;5.848;2022-08-01T00:11:51;20.90;99.90
42019;DHT22;27703;51.980;5.848;2022-08-01T00:14:17;20.90;99.90
42019;DHT22;27703;51.980;5.848;2022-08-01T00:16:42;20.80;99.90
42019;DHT22;27703;51.980;5.848;2022-08-01T00:19:08;20.80;99.90
42019;DHT22;27703;51.980;5.848;2022-08-01T00:21:33;20.80;99.90
42019;DHT22;27703;51.980;5.848;2022-08-01T00:23:59;20.80;99.90
42019;DHT22;27703;51.980;5.848;2022-08-01T00:26:25;20.80;99.90
42019;DHT22;27703;51.980;5.848;2022-08-01T00:28:50;20.80;99.90
42019;DHT22;27703;51.980;5.848;2022-08-01T00:31:16;20.80;99.90
42019;DHT22;27703;51.980;5.848;2022-08-01T00:33:41;20.80;99.90
42019;DHT22;27703;51.980;5.848;2022-08-01T00:36:07;20.80;99.90
42019;DHT22;27703;51.980;5.848;2022-08-01T00:38:33;20.80;99.90
42019;DHT22;27703;51.980;5.848;2022-08-01T00:40:58;20.80;99.90
42019;DHT22;27703;51.980;5.848;2022-08-01T00:43:24;20.80;99.90
42019;DHT22;27703;51.980;5.848;2022-08-01T00:45:49;20.80;99.90
42019;DHT22;27703;51.980;5.848;2022-08-01T00:48:15;20.70;99.90
42019;DHT22;27703;51.980;5.848;2022-08-01T00:50:40;20.80;99.90
42019;DHT22;27703;51.980;5.848;2022-08-01T00:53:07;20.80;99.90
42019;DHT22;27703;51.980;5.848;2022-08-01T00:55:32;20.80;99.90
42019;DHT22;27703;51.980;5.848;2022-08-01T00:57:58;20.70;99.90
42019;DHT22;27703;51.980;5.848;2022-08-01T01:00:24;20.70;99.90
42019;DHT22;27703;51.980;5.848;2022-08-01T01:02:50;20.60;99.90
42019;DHT22;27703;51.980;5.848;2022-08-01T01:05:16;20.60;99.90
42019;DHT22;27703;51.980;5.848;2022-08-01T01:07:53;20.60;99.90
42019;DHT22;27703;51.980;5.848;2022-08-01T01:10:31;20.60;99.90
42019;DHT22;27703;51.980;5.848;2022-08-01T01:13:13;20.60;99.90
42019;DHT22;27703;51.980;5.848;2022-08-01T01:15:45;20.50;99.90
42019;DHT22;27703;51.980;5.848;2022-08-01T01:18:22;20.50;99.90
42019;DHT22;27703;51.980;5.848;2022-08-01T01:20:56;20.50;99.90
42019;DHT22;27703;51.980;5.848;2022-08-01T01:29:08;20.40;99.90
42019;DHT22;27703;51.980;5.848;2022-08-01T01:31:46;20.40;99.90
42019;DHT22;27703;51.980;5.848;2022-08-01T01:34:14;20.40;99.90
42019;DHT22;27703;51.980;5.848;2022-08-01T01:36:42;20.40;99.90
42019;DHT22;27703;51.980;5.848;2022-08-01T01:39:09;20.30;99.90
42019;DHT22;27703;51.980;5.848;2022-08-01T01:41:36;20.30;99.90
42019;DHT22;27703;51.980;5.848;2022-08-01T01:44:04;20.30;99.90
42019;DHT22;27703;51.980;5.848;2022-08-01T01:46:31;20.30;99.90
42019;DHT22;27703;51.980;5.848;2022-08-01T01:48:58;20.40;99.90
42019;DHT22;27703;51.980;5.848;2022-08-01T01:51:25;20.40;99.90
42019;DHT22;27703;51.980;5.848;2022-08-01T01:53:53;20.30;99.90
42019;DHT22;27703;51.980;5.848;2022-08-01T01:56:20;20.40;99.90
42019;DHT22;27703;51.980;5.848;2022-08-01T01:58:53;20.30;99.90
42019;DHT22;27703;51.980;5.848;2022-08-01T02:01:21;20.30;99.90
42019;DHT22;27703;51.980;5.848;2022-08-01T02:03:49;20.30;99.90
42019;DHT22;27703;51.980;5.848;2022-08-01T02:06:16;20.30;99.90
42019;DHT22;27703;51.980;5.848;2022-08-01T02:08:42;20.30;99.90
42019;DHT22;27703;51.980;5.848;2022-08-01T02:11:10;20.30;99.90
42019;DHT22;27703;51.980;5.848;2022-08-01T02:13:52;20.30;99.90
42019;DHT22;27703;51.980;5.848;2022-08-01T02:16:19;20.30;99.90
42019;DHT22;27703;51.980;5.848;2022-08-01T02:18:46;20.30;99.90
42019;DHT22;27703;51.980;5.848;2022-08-01T02:21:16;20.30;99.90
42019;DHT22;27703;51.980;5.848;2022-08-01T02:23:45;20.30;99.90
42019;DHT22;27703;51.980;5.848;2022-08-01T02:26:14;20.30;99.90
42019;DHT22;27703;51.980;5.848;2022-08-01T02:28:49;20.30;99.90
42019;DHT22;27703;51.980;5.848;2022-08-01T02:31:19;20.30;99.90
42019;DHT22;27703;51.980;5.848;2022-08-01T02:33:55;20.30;99.90
42019;DHT22;27703;51.980;5.848;2022-08-01T02:36:25;20.30;99.90
42019;DHT22;27703;51.980;5.848;2022-08-01T02:38:52;20.30;99.90
42019;DHT22;27703;51.980;5.848;2022-08-01T02:41:21;20.30;99.90
42019;DHT22;27703;51.980;5.848;2022-08-01T02:43:49;20.20;99.90
42019;DHT22;27703;51.980;5.848;2022-08-01T02:46:22;20.30;99.90
42019;DHT22;27703;51.980;5.848;2022-08-01T02:48:52;20.30;99.90
42019;DHT22;27703;51.980;5.848;2022-08-01T02:51:19;20.30;99.90
42019;DHT22;27703;51.980;5.848;2022-08-01T02:53:48;20.30;99.90
42019;DHT22;27703;51.980;5.848;2022-08-01T02:56:15;20.30;99.90
42019;DHT22;27703;51.980;5.848;2022-08-01T02:58:42;20.30;99.90
42019;DHT22;27703;51.980;5.848;2022-08-01T03:01:10;20.30;99.90
42019;DHT22;27703;51.980;5.848;2022-08-01T03:03:37;20.30;99.90
42019;DHT22;27703;51.980;5.848;2022-08-01T03:06:03;20.30;99.90
42019;DHT22;27703;51.980;5.848;2022-08-01T03:08:30;20.30;99.90
42019;DHT22;27703;51.980;5.848;2022-08-01T03:10:57;20.20;99.90
42019;DHT22;27703;51.980;5.848;2022-08-01T03:13:25;20.30;99.90
42019;DHT22;27703;51.980;5.848;2022-08-01T03:15:52;20.20;99.90
42019;DHT22;27703;51.980;5.848;2022-08-01T03:18:18;20.20;99.90
42019;DHT22;27703;51.980;5.848;2022-08-01T03:20:45;20.30;99.90
42019;DHT22;27703;51.980;5.848;2022-08-01T03:23:12;20.20;99.90
42019;DHT22;27703;51.980;5.848;2022-08-01T03:25:40;20.30;99.90
42019;DHT22;27703;51.980;5.848;2022-08-01T03:28:07;20.20;99.90
42019;DHT22;27703;51.980;5.848;2022-08-01T03:30:36;20.30;99.90
42019;DHT22;27703;51.980;5.848;2022-08-01T03:33:02;20.20;99.90
42019;DHT22;27703;51.980;5.848;2022-08-01T03:35:33;20.20;99.90
42019;DHT22;27703;51.980;5.848;2022-08-01T03:38:00;20.20;99.90
42019;DHT22;27703;51.980;5.848;2022-08-01T03:40:39;20.20;99.90
42019;DHT22;27703;51.980;5.848;2022-08-01T03:43:10;20.20;99.90
42019;DHT22;27703;51.980;5.848;2022-08-01T03:45:40;20.20;99.90
42019;DHT22;27703;51.980;5.848;2022-08-01T03:48:14;20.20;99.90
42019;DHT22;27703;51.980;5.848;2022-08-01T03:50:42;20.10;99.90
42019;DHT22;27703;51.980;5.848;2022-08-01T03:53:09;20.10;99.90
42019;DHT22;27703;51.980;5.848;2022-08-01T03:55:36;20.10;99.90
42019;DHT22;27703;51.980;5.848;2022-08-01T03:58:03;20.10;99.90
42019;DHT22;27703;51.980;5.848;2022-08-01T04:00:30;20.10;99.90
42019;DHT22;27703;51.980;5.848;2022-08-01T04:02:56;20.00;99.90
42019;DHT22;27703;51.980;5.848;2022-08-01T04:05:22;20.10;99.90
42019;DHT22;27703;51.980;5.848;2022-08-01T04:07:49;20.00;99.90
42019;DHT22;27703;51.980;5.848;2022-08-01T04:10:21;20.00;99.90
42019;DHT22;27703;51.980;5.848;2022-08-01T04:12:48;20.00;99.90
42019;DHT22;27703;51.980;5.848;2022-08-01T04:15:14;20.00;99.90
42019;DHT22;27703;51.980;5.848;2022-08-01T04:17:40;20.00;99.90
42019;DHT22;27703;51.980;5.848;2022-08-01T04:20:06;20.00;99.90
42019;DHT22;27703;51.980;5.848;2022-08-01T04:22:31;20.00;99.90
42019;DHT22;27703;51.980;5.848;2022-08-01T04:24:58;20.00;99.90
42019;DHT22;27703;51.980;5.848;2022-08-01T04:27:37;20.00;99.90
42019;DHT22;27703;51.980;5.848;2022-08-01T04:30:05;20.00;99.90
42019;DHT22;27703;51.980;5.848;2022-08-01T04:32:33;20.00;99.90
42019;DHT22;27703;51.980;5.848;2022-08-01T04:35:05;20.00;99.90
42019;DHT22;27703;51.980;5.848;2022-08-01T04:37:32;20.00;99.90
42019;DHT22;27703;51.980;5.848;2022-08-01T04:39:59;20.00;99.90
42019;DHT22;27703;51.980;5.848;2022-08-01T04:42:26;20.00;99.90
42019;DHT22;27703;51.980;5.848;2022-08-01T04:44:53;20.00;99.90
42019;DHT22;27703;51.980;5.848;2022-08-01T04:47:19;20.00;99.90
42019;DHT22;27703;51.980;5.848;2022-08-01T04:49:45;20.00;99.90
42019;DHT22;27703;51.980;5.848;2022-08-01T04:52:11;20.00;99.90
42019;DHT22;27703;51.980;5.848;2022-08-01T04:54:37;20.00;99.90
42019;DHT22;27703;51.980;5.848;2022-08-01T04:57:04;20.00;99.90
42019;DHT22;27703;51.980;5.848;2022-08-01T04:59:31;20.00;99.90
42019;DHT22;27703;51.980;5.848;2022-08-01T05:02:10;20.00;99.90
42019;DHT22;27703;51.980;5.848;2022-08-01T05:04:37;20.00;99.90
42019;DHT22;27703;51.980;5.848;2022-08-01T05:07:04;20.00;99.90
42019;DHT22;27703;51.980;5.848;2022-08-01T05:09:30;20.00;99.90
42019;DHT22;27703;51.980;5.848;2022-08-01T05:11:57;20.00;99.90
42019;DHT22;27703;51.980;5.848;2022-08-01T05:14:27;20.00;99.90
42019;DHT22;27703;51.980;5.848;2022-08-01T05:16:53;20.00;99.90
42019;DHT22;27703;51.980;5.848;2022-08-01T05:19:19;20.00;99.90
42019;DHT22;27703;51.980;5.848;2022-08-01T05:21:45;20.10;99.90
42019;DHT22;27703;51.980;5.848;2022-08-01T05:24:10;20.10;99.90
42019;DHT22;27703;51.980;5.848;2022-08-01T05:26:36;20.10;99.90
42019;DHT22;27703;51.980;5.848;2022-08-01T05:29:02;20.10;99.90
42019;DHT22;27703;51.980;5.848;2022-08-01T05:31:28;20.10;99.90
42019;DHT22;27703;51.980;5.848;2022-08-01T05:33:53;20.10;99.90
42019;DHT22;27703;51.980;5.848;2022-08-01T05:36:19;20.10;99.90
42019;DHT22;27703;51.980;5.848;2022-08-01T05:38:45;20.10;99.90
42019;DHT22;27703;51.980;5.848;2022-08-01T05:41:10;20.10;99.90
42019;DHT22;27703;51.980;5.848;2022-08-01T05:43:36;20.10;99.90
42019;DHT22;27703;51.980;5.848;2022-08-01T05:46:02;20.20;99.90
42019;DHT22;27703;51.980;5.848;2022-08-01T05:48:27;20.20;99.90
42019;DHT22;27703;51.980;5.848;2022-08-01T05:50:53;20.20;99.90
42019;DHT22;27703;51.980;5.848;2022-08-01T05:53:19;20.20;99.90
42019;DHT22;27703;51.980;5.848;2022-08-01T05:55:45;20.20;99.90
42019;DHT22;27703;51.980;5.848;2022-08-01T05:58:10;20.20;99.90
42019;DHT22;27703;51.980;5.848;2022-08-01T06:00:36;20.20;99.90
42019;DHT22;27703;51.980;5.848;2022-08-01T06:03:01;20.20;99.90
42019;DHT22;27703;51.980;5.848;2022-08-01T06:05:27;20.20;99.90
42019;DHT22;27703;51.980;5.848;2022-08-01T06:07:53;20.20;99.90
42019;DHT22;27703;51.980;5.848;2022-08-01T06:10:19;20.20;99.90
42019;DHT22;27703;51.980;5.848;2022-08-01T06:12:44;20.20;99.90
42019;DHT22;27703;51.980;5.848;2022-08-01T06:15:10;20.20;99.90
42019;DHT22;27703;51.980;5.848;2022-08-01T06:17:36;20.30;99.90
42019;DHT22;27703;51.980;5.848;2022-08-01T06:20:03;20.30;99.90
42019;DHT22;27703;51.980;5.848;2022-08-01T06:22:28;20.40;99.90
42019;DHT22;27703;51.980;5.848;2022-08-01T06:24:54;20.40;99.90
42019;DHT22;27703;51.980;5.848;2022-08-01T06:27:20;20.40;99.90
42019;DHT22;27703;51.980;5.848;2022-08-01T06:29:45;20.50;99.90
42019;DHT22;27703;51.980;5.848;2022-08-01T06:32:11;20.50;99.90
42019;DHT22;27703;51.980;5.848;2022-08-01T06:34:36;20.50;99.90
42019;DHT22;27703;51.980;5.848;2022-08-01T06:37:02;20.50;99.90
42019;DHT22;27703;51.980;5.848;2022-08-01T06:39:28;20.60;99.90
42019;DHT22;27703;51.980;5.848;2022-08-01T06:41:53;20.60;99.90
42019;DHT22;27703;51.980;5.848;2022-08-01T06:44:19;20.60;99.90
42019;DHT22;27703;51.980;5.848;2022-08-01T06:46:44;20.70;99.90
42019;DHT22;27703;51.980;5.848;2022-08-01T06:49:10;20.70;99.90
42019;DHT22;27703;51.980;5.848;2022-08-01T06:51:35;20.70;99.90
42019;DHT22;27703;51.980;5.848;2022-08-01T06:54:01;20.70;99.90
42019;DHT22;27703;51.980;5.848;2022-08-01T06:56:27;20.70;99.90
42019;DHT22;27703;51.980;5.848;2022-08-01T06:58:52;20.70;99.90
42019;DHT22;27703;51.980;5.848;2022-08-01T07:01:18;20.70;99.90
42019;DHT22;27703;51.980;5.848;2022-08-01T07:03:43;20.70;99.90
42019;DHT22;27703;51.980;5.848;2022-08-01T07:06:09;20.70;99.90
42019;DHT22;27703;51.980;5.848;2022-08-01T07:08:35;20.80;99.90
42019;DHT22;27703;51.980;5.848;2022-08-01T07:11:00;20.70;99.90
42019;DHT22;27703;51.980;5.848;2022-08-01T07:13:27;20.70;99.90
42019;DHT22;27703;51.980;5.848;2022-08-01T07:15:53;20.80;99.90
42019;DHT22;27703;51.980;5.848;2022-08-01T07:18:19;20.80;99.90
42019;DHT22;27703;51.980;5.848;2022-08-01T07:20:44;20.90;99.90
42019;DHT22;27703;51.980;5.848;2022-08-01T07:23:13;20.90;99.90
42019;DHT22;27703;51.980;5.848;2022-08-01T07:25:39;20.90;99.90
42019;DHT22;27703;51.980;5.848;2022-08-01T07:28:04;20.90;99.90
42019;DHT22;27703;51.980;5.848;2022-08-01T07:30:30;20.90;99.90
42019;DHT22;27703;51.980;5.848;2022-08-01T07:32:56;20.90;99.90
42019;DHT22;27703;51.980;5.848;2022-08-01T07:35:22;20.90;99.90
42019;DHT22;27703;51.980;5.848;2022-08-01T07:37:47;20.90;99.90
42019;DHT22;27703;51.980;5.848;2022-08-01T07:40:13;20.90;99.90
42019;DHT22;27703;51.980;5.848;2022-08-01T07:42:39;20.80;99.90
42019;DHT22;27703;51.980;5.848;2022-08-01T07:45:09;20.90;99.90
42019;DHT22;27703;51.980;5.848;2022-08-01T07:47:34;20.90;99.90
42019;DHT22;27703;51.980;5.848;2022-08-01T07:50:01;20.90;99.90
42019;DHT22;27703;51.980;5.848;2022-08-01T07:52:26;20.90;99.90
42019;DHT22;27703;51.980;5.848;2022-08-01T07:54:52;20.90;99.90
42019;DHT22;27703;51.980;5.848;2022-08-01T07:57:18;20.90;99.90
42019;DHT22;27703;51.980;5.848;2022-08-01T07:59:43;20.90;99.90
42019;DHT22;27703;51.980;5.848;2022-08-01T08:02:09;21.00;99.90
42019;DHT22;27703;51.980;5.848;2022-08-01T08:04:35;21.00;99.90
42019;DHT22;27703;51.980;5.848;2022-08-01T08:07:00;21.10;99.90
42019;DHT22;27703;51.980;5.848;2022-08-01T08:09:26;21.10;99.90
42019;DHT22;27703;51.980;5.848;2022-08-01T08:11:51;21.10;99.90
42019;DHT22;27703;51.980;5.848;2022-08-01T08:14:17;21.10;99.90
42019;DHT22;27703;51.980;5.848;2022-08-01T08:16:43;21.10;99.90
42019;DHT22;27703;51.980;5.848;2022-08-01T08:19:09;21.10;99.90
42019;DHT22;27703;51.980;5.848;2022-08-01T08:21:35;21.10;99.90
42019;DHT22;27703;51.980;5.848;2022-08-01T08:24:01;21.10;99.90
42019;DHT22;27703;51.980;5.848;2022-08-01T08:26:46;21.10;99.90
42019;DHT22;27703;51.980;5.848;2022-08-01T08:29:12;21.10;99.90
42019;DHT22;27703;51.980;5.848;2022-08-01T08:31:37;21.10;99.90
42019;DHT22;27703;51.980;5.848;2022-08-01T08:34:03;21.10;99.90
42019;DHT22;27703;51.980;5.848;2022-08-01T08:36:28;21.10;99.90
42019;DHT22;27703;51.980;5.848;2022-08-01T08:38:54;21.10;99.90
42019;DHT22;27703;51.980;5.848;2022-08-01T08:41:21;21.20;99.90
42019;DHT22;27703;51.980;5.848;2022-08-01T08:43:47;21.30;99.90
42019;DHT22;27703;51.980;5.848;2022-08-01T08:46:14;21.30;99.90
42019;DHT22;27703;51.980;5.848;2022-08-01T08:48:41;21.30;99.90
42019;DHT22;27703;51.980;5.848;2022-08-01T08:51:08;21.40;99.90
42019;DHT22;27703;51.980;5.848;2022-08-01T08:53:37;21.40;99.90
42019;DHT22;27703;51.980;5.848;2022-08-01T08:56:04;21.40;99.90
42019;DHT22;27703;51.980;5.848;2022-08-01T08:58:32;21.40;99.90
42019;DHT22;27703;51.980;5.848;2022-08-01T09:01:05;21.40;99.90
42019;DHT22;27703;51.980;5.848;2022-08-01T09:03:32;21.30;99.90
42019;DHT22;27703;51.980;5.848;2022-08-01T09:05:57;21.20;99.90
42019;DHT22;27703;51.980;5.848;2022-08-01T09:08:23;21.20;99.90
42019;DHT22;27703;51.980;5.848;2022-08-01T09:10:49;21.10;99.90
42019;DHT22;27703;51.980;5.848;2022-08-01T09:13:15;21.00;99.90
42019;DHT22;27703;51.980;5.848;2022-08-01T09:15:45;20.90;99.90
42019;DHT22;27703;51.980;5.848;2022-08-01T09:21:18;20.70;99.90
42019;DHT22;27703;51.980;5.848;2022-08-01T09:23:53;20.60;99.90
42019;DHT22;27703;51.980;5.848;2022-08-01T09:26:41;20.60;99.90
42019;DHT22;27703;51.980;5.848;2022-08-01T09:29:08;20.50;99.90
42019;DHT22;27703;51.980;5.848;2022-08-01T09:31:43;20.50;99.90
42019;DHT22;27703;51.980;5.848;2022-08-01T09:34:09;20.50;99.90
42019;DHT22;27703;51.980;5.848;2022-08-01T09:36:54;20.40;99.90
42019;DHT22;27703;51.980;5.848;2022-08-01T09:39:26;20.40;99.90
42019;DHT22;27703;51.980;5.848;2022-08-01T09:41:54;20.40;99.90
42019;DHT22;27703;51.980;5.848;2022-08-01T09:44:26;20.30;99.90
42019;DHT22;27703;51.980;5.848;2022-08-01T09:47:01;20.30;99.90
42019;DHT22;27703;51.980;5.848;2022-08-01T09:49:33;20.30;99.90
42019;DHT22;27703;51.980;5.848;2022-08-01T09:52:13;20.30;99.90
42019;DHT22;27703;51.980;5.848;2022-08-01T09:54:40;20.30;99.90
42019;DHT22;27703;51.980;5.848;2022-08-01T09:57:15;20.20;99.90
42019;DHT22;27703;51.980;5.848;2022-08-01T09:59:43;20.30;99.90
42019;DHT22;27703;51.980;5.848;2022-08-01T10:02:10;20.30;99.90
42019;DHT22;27703;51.980;5.848;2022-08-01T10:04:46;20.30;99.90
42019;DHT22;27703;51.980;5.848;2022-08-01T10:07:12;20.40;99.90
42019;DHT22;27703;51.980;5.848;2022-08-01T10:09:40;20.50;99.90
42019;DHT22;27703;51.980;5.848;2022-08-01T10:12:06;20.50;99.90
42019;DHT22;27703;51.980;5.848;2022-08-01T10:14:32;20.60;99.90
42019;DHT22;27703;51.980;5.848;2022-08-01T10:16:59;20.70;99.90
42019;DHT22;27703;51.980;5.848;2022-08-01T10:19:26;20.70;99.90
42019;DHT22;27703;51.980;5.848;2022-08-01T10:21:53;20.70;99.90
42019;DHT22;27703;51.980;5.848;2022-08-01T10:24:20;20.70;99.90
42019;DHT22;27703;51.980;5.848;2022-08-01T10:26:52;20.70;99.90
42019;DHT22;27703;51.980;5.848;2022-08-01T10:29:20;20.80;99.90
42019;DHT22;27703;51.980;5.848;2022-08-01T10:31:47;20.80;99.90
42019;DHT22;27703;51.980;5.848;2022-08-01T10:34:13;20.90;99.90
42019;DHT22;27703;51.980;5.848;2022-08-01T10:36:48;21.00;99.90
42019;DHT22;27703;51.980;5.848;2022-08-01T10:39:14;21.00;99.90
42019;DHT22;27703;51.980;5.848;2022-08-01T10:41:40;21.00;99.90
42019;DHT22;27703;51.980;5.848;2022-08-01T10:44:09;21.10;99.90
42019;DHT22;27703;51.980;5.848;2022-08-01T10:46:39;21.10;99.90
42019;DHT22;27703;51.980;5.848;2022-08-01T10:49:11;21.20;99.90
42019;DHT22;27703;51.980;5.848;2022-08-01T10:51:39;21.30;99.90
42019;DHT22;27703;51.980;5.848;2022-08-01T10:54:09;21.20;99.90
42019;DHT22;27703;51.980;5.848;2022-08-01T10:56:49;21.30;99.90
42019;DHT22;27703;51.980;5.848;2022-08-01T10:59:22;21.30;99.90
42019;DHT22;27703;51.980;5.848;2022-08-01T11:02:03;21.20;99.90
42019;DHT22;27703;51.980;5.848;2022-08-01T11:04:55;21.20;99.90
42019;DHT22;27703;51.980;5.848;2022-08-01T11:07:24;21.30;99.90
42019;DHT22;27703;51.980;5.848;2022-08-01T11:10:14;21.20;99.90
42019;DHT22;27703;51.980;5.848;2022-08-01T11:12:42;21.20;99.90
42019;DHT22;27703;51.980;5.848;2022-08-01T11:17:40;21.20;99.90
42019;DHT22;27703;51.980;5.848;2022-08-01T11:20:25;21.20;99.90
42019;DHT22;27703;51.980;5.848;2022-08-01T11:25:26;21.30;99.90
42019;DHT22;27703;51.980;5.848;2022-08-01T11:30:52;21.40;99.90
42019;DHT22;27703;51.980;5.848;2022-08-01T11:33:19;21.50;99.90
42019;DHT22;27703;51.980;5.848;2022-08-01T11:38:38;21.60;99.90
42019;DHT22;27703;51.980;5.848;2022-08-01T11:41:15;21.50;99.90
42019;DHT22;27703;51.980;5.848;2022-08-01T11:43:55;21.50;99.90
42019;DHT22;27703;51.980;5.848;2022-08-01T11:46:53;21.50;99.90
42019;DHT22;27703;51.980;5.848;2022-08-01T11:51:58;21.30;99.90
42019;DHT22;27703;51.980;5.848;2022-08-01T11:54:28;21.30;99.90
42019;DHT22;27703;51.980;5.848;2022-08-01T11:57:09;21.30;99.90
42019;DHT22;27703;51.980;5.848;2022-08-01T11:59:40;21.30;99.90
42019;DHT22;27703;51.980;5.848;2022-08-01T12:02:39;21.20;99.90
42019;DHT22;27703;51.980;5.848;2022-08-01T12:07:31;21.20;99.90
42019;DHT22;27703;51.980;5.848;2022-08-01T12:10:09;21.20;99.90
42019;DHT22;27703;51.980;5.848;2022-08-01T12:12:36;21.20;99.90
42019;DHT22;27703;51.980;5.848;2022-08-01T12:15:08;21.20;99.90
42019;DHT22;27703;51.980;5.848;2022-08-01T12:17:38;21.30;99.90
42019;DHT22;27703;51.980;5.848;2022-08-01T12:20:06;21.20;99.90
42019;DHT22;27703;51.980;5.848;2022-08-01T12:22:32;21.30;99.90
42019;DHT22;27703;51.980;5.848;2022-08-01T12:25:08;21.40;99.90
42019;DHT22;27703;51.980;5.848;2022-08-01T12:27:35;21.50;99.90
42019;DHT22;27703;51.980;5.848;2022-08-01T12:30:01;21.60;99.90
42019;DHT22;27703;51.980;5.848;2022-08-01T12:32:33;21.70;99.90
42019;DHT22;27703;51.980;5.848;2022-08-01T12:37:40;21.80;99.90
42019;DHT22;27703;51.980;5.848;2022-08-01T12:40:11;21.90;99.90
42019;DHT22;27703;51.980;5.848;2022-08-01T12:42:38;21.90;99.90
42019;DHT22;27703;51.980;5.848;2022-08-01T12:45:09;21.90;99.90
42019;DHT22;27703;51.980;5.848;2022-08-01T12:47:39;21.90;99.90
42019;DHT22;27703;51.980;5.848;2022-08-01T12:50:08;21.90;99.90
42019;DHT22;27703;51.980;5.848;2022-08-01T12:52:36;21.90;99.90
42019;DHT22;27703;51.980;5.848;2022-08-01T12:55:11;21.80;99.90
42019;DHT22;27703;51.980;5.848;2022-08-01T12:57:39;21.80;99.90
42019;DHT22;27703;51.980;5.848;2022-08-01T13:02:36;21.90;99.90
42019;DHT22;27703;51.980;5.848;2022-08-01T13:05:03;21.90;99.90
42019;DHT22;27703;51.980;5.848;2022-08-01T13:07:50;21.90;99.90
42019;DHT22;27703;51.980;5.848;2022-08-01T13:10:29;21.90;99.90
42019;DHT22;27703;51.980;5.848;2022-08-01T13:12:56;21.80;99.90
42019;DHT22;27703;51.980;5.848;2022-08-01T13:15:31;21.80;99.90
42019;DHT22;27703;51.980;5.848;2022-08-01T13:17:59;21.80;99.90
42019;DHT22;27703;51.980;5.848;2022-08-01T13:20:33;21.90;99.90
42019;DHT22;27703;51.980;5.848;2022-08-01T13:23:18;22.00;99.90
42019;DHT22;27703;51.980;5.848;2022-08-01T13:25:52;22.20;99.90
42019;DHT22;27703;51.980;5.848;2022-08-01T13:28:23;22.30;99.90
42019;DHT22;27703;51.980;5.848;2022-08-01T13:31:03;22.50;99.90
42019;DHT22;27703;51.980;5.848;2022-08-01T13:33:46;22.70;99.70
42019;DHT22;27703;51.980;5.848;2022-08-01T13:36:13;22.90;99.40
42019;DHT22;27703;51.980;5.848;2022-08-01T13:38:40;23.00;99.20
42019;DHT22;27703;51.980;5.848;2022-08-01T13:41:25;23.20;98.90
42019;DHT22;27703;51.980;5.848;2022-08-01T13:43:51;23.30;98.70
42019;DHT22;27703;51.980;5.848;2022-08-01T13:46:16;23.30;98.30
42019;DHT22;27703;51.980;5.848;2022-08-01T13:48:42;23.30;98.20
42019;DHT22;27703;51.980;5.848;2022-08-01T13:51:08;23.30;98.10
42019;DHT22;27703;51.980;5.848;2022-08-01T13:53:33;23.30;97.80
42019;DHT22;27703;51.980;5.848;2022-08-01T13:55:59;23.30;97.50
42019;DHT22;27703;51.980;5.848;2022-08-01T13:58:25;23.30;97.50
42019;DHT22;27703;51.980;5.848;2022-08-01T14:00:50;23.20;97.50
42019;DHT22;27703;51.980;5.848;2022-08-01T14:03:16;23.10;97.50
42019;DHT22;27703;51.980;5.848;2022-08-01T14:05:45;23.10;97.50
42019;DHT22;27703;51.980;5.848;2022-08-01T14:08:11;23.10;97.30
42019;DHT22;27703;51.980;5.848;2022-08-01T14:10:39;23.10;97.00
42019;DHT22;27703;51.980;5.848;2022-08-01T14:13:05;23.10;97.10
42019;DHT22;27703;51.980;5.848;2022-08-01T14:15:31;23.10;97.20
42019;DHT22;27703;51.980;5.848;2022-08-01T14:17:57;23.10;97.30
42019;DHT22;27703;51.980;5.848;2022-08-01T14:20:23;23.10;97.20
42019;DHT22;27703;51.980;5.848;2022-08-01T14:22:49;23.20;97.00
42019;DHT22;27703;51.980;5.848;2022-08-01T14:25:15;23.20;96.80
42019;DHT22;27703;51.980;5.848;2022-08-01T14:27:40;23.30;96.70
42019;DHT22;27703;51.980;5.848;2022-08-01T14:30:07;23.30;96.60
42019;DHT22;27703;51.980;5.848;2022-08-01T14:32:33;23.40;96.50
42019;DHT22;27703;51.980;5.848;2022-08-01T14:34:59;23.50;96.40
42019;DHT22;27703;51.980;5.848;2022-08-01T14:37:25;23.50;95.90
42019;DHT22;27703;51.980;5.848;2022-08-01T14:39:51;23.50;95.90
42019;DHT22;27703;51.980;5.848;2022-08-01T14:42:16;23.70;95.50
42019;DHT22;27703;51.980;5.848;2022-08-01T14:44:42;24.00;95.30
42019;DHT22;27703;51.980;5.848;2022-08-01T14:47:07;24.20;95.00
42019;DHT22;27703;51.980;5.848;2022-08-01T14:49:33;24.50;94.70
42019;DHT22;27703;51.980;5.848;2022-08-01T14:51:58;24.70;94.10
42019;DHT22;27703;51.980;5.848;2022-08-01T14:54:24;25.00;93.70
42019;DHT22;27703;51.980;5.848;2022-08-01T14:56:50;25.10;93.60
42019;DHT22;27703;51.980;5.848;2022-08-01T14:59:18;25.30;93.30
42019;DHT22;27703;51.980;5.848;2022-08-01T15:01:43;25.40;92.90
42019;DHT22;27703;51.980;5.848;2022-08-01T15:04:09;25.50;92.90
42019;DHT22;27703;51.980;5.848;2022-08-01T15:06:34;25.60;92.60
42019;DHT22;27703;51.980;5.848;2022-08-01T15:09:00;25.60;92.50
42019;DHT22;27703;51.980;5.848;2022-08-01T15:11:26;25.60;92.20
42019;DHT22;27703;51.980;5.848;2022-08-01T15:13:52;25.70;92.10
42019;DHT22;27703;51.980;5.848;2022-08-01T15:16:36;25.70;91.90
42019;DHT22;27703;51.980;5.848;2022-08-01T15:19:02;25.80;91.50
42019;DHT22;27703;51.980;5.848;2022-08-01T15:21:28;25.90;91.00
42019;DHT22;27703;51.980;5.848;2022-08-01T15:23:53;25.90;91.00
42019;DHT22;27703;51.980;5.848;2022-08-01T15:26:19;26.00;90.80
42019;DHT22;27703;51.980;5.848;2022-08-01T15:28:45;26.00;90.70
42019;DHT22;27703;51.980;5.848;2022-08-01T15:31:12;26.10;90.60
42019;DHT22;27703;51.980;5.848;2022-08-01T15:33:38;26.20;90.40
42019;DHT22;27703;51.980;5.848;2022-08-01T15:36:04;26.20;90.00
42019;DHT22;27703;51.980;5.848;2022-08-01T15:38:33;26.20;90.00
42019;DHT22;27703;51.980;5.848;2022-08-01T15:40:58;26.20;90.00
42019;DHT22;27703;51.980;5.848;2022-08-01T15:43:24;26.30;89.90
42019;DHT22;27703;51.980;5.848;2022-08-01T15:45:50;26.40;89.10
42019;DHT22;27703;51.980;5.848;2022-08-01T15:48:16;26.40;88.60
42019;DHT22;27703;51.980;5.848;2022-08-01T15:50:42;26.40;88.20
42019;DHT22;27703;51.980;5.848;2022-08-01T15:53:07;26.50;88.40
42019;DHT22;27703;51.980;5.848;2022-08-01T15:55:37;26.50;87.90
42019;DHT22;27703;51.980;5.848;2022-08-01T15:58:03;26.50;87.30
42019;DHT22;27703;51.980;5.848;2022-08-01T16:00:28;26.60;86.80
42019;DHT22;27703;51.980;5.848;2022-08-01T16:02:57;26.60;86.50
42019;DHT22;27703;51.980;5.848;2022-08-01T16:05:23;26.60;86.20
42019;DHT22;27703;51.980;5.848;2022-08-01T16:07:48;26.60;86.10